sensor_id;sensor_type;location;lat;lon;timestamp;temperature;humidity
20174;DHT22;10246;50.620;7.232;2023-04-23T00:01:37;14.50;11.00
20174;DHT22;10246;50.620;7.232;2023-04-23T00:04:07;14.50;11.60
20174;DHT22;10246;50.620;7.232;2023-04-23T00:06:34;14.40;12.40
20174;DHT22;10246;50.620;7.232;2023-04-23T00:09:03;14.40;12.20
20174;DHT22;10246;50.620;7.232;2023-04-23T00:11:32;14.40;12.10
20174;DHT22;10246;50.620;7.232;2023-04-23T00:13:59;14.40;11.80
20174;DHT22;10246;50.620;7.232;2023-04-23T00:16:26;14.40;12.00
20174;DHT22;10246;50.620;7.232;2023-04-23T00:18:53;14.30;12.60
20174;DHT22;10246;50.620;7.232;2023-04-23T00:21:19;14.30;12.80
20174;DHT22;10246;50.620;7.232;2023-04-23T00:23:46;14.30;12.90
20174;DHT22;10246;50.620;7.232;2023-04-23T00:26:15;14.30;12.40
20174;DHT22;10246;50.620;7.232;2023-04-23T00:28:43;14.30;12.80
20174;DHT22;10246;50.620;7.232;2023-04-23T00:31:09;14.40;12.40
20174;DHT22;10246;50.620;7.232;2023-04-23T00:33:36;14.30;12.20
20174;DHT22;10246;50.620;7.232;2023-04-23T00:36:03;14.30;12.20
20174;DHT22;10246;50.620;7.232;2023-04-23T00:38:30;14.30;12.40
20174;DHT22;10246;50.620;7.232;2023-04-23T00:40:56;14.30;12.10
20174;DHT22;10246;50.620;7.232;2023-04-23T00:43:25;14.30;12.10
20174;DHT22;10246;50.620;7.232;2023-04-23T00:45:52;14.30;12.30
20174;DHT22;10246;50.620;7.232;2023-04-23T00:48:19;14.20;12.00
20174;DHT22;10246;50.620;7.232;2023-04-23T00:50:46;14.20;12.40
20174;DHT22;10246;50.620;7.232;2023-04-23T00:53:13;14.30;12.60
20174;DHT22;10246;50.620;7.232;2023-04-23T00:55:40;14.30;12.40
20174;DHT22;10246;50.620;7.232;2023-04-23T00:58:06;14.20;12.30
20174;DHT22;10246;50.620;7.232;2023-04-23T01:00:39;14.20;12.80
20174;DHT22;10246;50.620;7.232;2023-04-23T01:03:10;14.20;12.80
20174;DHT22;10246;50.620;7.232;2023-04-23T01:05:37;14.30;12.30
20174;DHT22;10246;50.620;7.232;2023-04-23T01:08:05;14.30;12.10
20174;DHT22;10246;50.620;7.232;2023-04-23T01:10:32;14.20;12.70
20174;DHT22;10246;50.620;7.232;2023-04-23T01:12:59;14.10;13.10
20174;DHT22;10246;50.620;7.232;2023-04-23T01:15:26;14.00;12.80
20174;DHT22;10246;50.620;7.232;2023-04-23T01:17:54;14.10;12.50
20174;DHT22;10246;50.620;7.232;2023-04-23T01:20:21;14.10;12.30
20174;DHT22;10246;50.620;7.232;2023-04-23T01:22:50;14.10;12.30
20174;DHT22;10246;50.620;7.232;2023-04-23T01:25:17;14.10;12.30
20174;DHT22;10246;50.620;7.232;2023-04-23T01:27:44;14.10;12.40
20174;DHT22;10246;50.620;7.232;2023-04-23T01:30:12;14.10;12.30
20174;DHT22;10246;50.620;7.232;2023-04-23T01:32:39;14.00;12.90
20174;DHT22;10246;50.620;7.232;2023-04-23T01:35:07;14.00;12.90
20174;DHT22;10246;50.620;7.232;2023-04-23T01:37:34;13.90;12.90
20174;DHT22;10246;50.620;7.232;2023-04-23T01:40:05;13.90;13.80
20174;DHT22;10246;50.620;7.232;2023-04-23T01:42:33;13.90;13.50
20174;DHT22;10246;50.620;7.232;2023-04-23T01:45:01;13.90;13.50
20174;DHT22;10246;50.620;7.232;2023-04-23T01:47:28;13.80;13.90
20174;DHT22;10246;50.620;7.232;2023-04-23T01:49:54;13.80;13.70
20174;DHT22;10246;50.620;7.232;2023-04-23T01:52:21;13.80;13.30
20174;DHT22;10246;50.620;7.232;2023-04-23T01:54:48;13.80;13.50
20174;DHT22;10246;50.620;7.232;2023-04-23T01:57:16;13.80;13.30
20174;DHT22;10246;50.620;7.232;2023-04-23T01:59:48;13.70;13.60
20174;DHT22;10246;50.620;7.232;2023-04-23T02:02:15;13.80;13.60
20174;DHT22;10246;50.620;7.232;2023-04-23T02:04:43;13.80;13.20
20174;DHT22;10246;50.620;7.232;2023-04-23T02:07:10;13.80;13.00
20174;DHT22;10246;50.620;7.232;2023-04-23T02:09:37;13.80;13.00
20174;DHT22;10246;50.620;7.232;2023-04-23T02:12:04;13.70;13.00
20174;DHT22;10246;50.620;7.232;2023-04-23T02:14:32;13.60;13.30
20174;DHT22;10246;50.620;7.232;2023-04-23T02:16:59;13.50;13.90
20174;DHT22;10246;50.620;7.232;2023-04-23T02:19:27;13.40;13.70
20174;DHT22;10246;50.620;7.232;2023-04-23T02:21:56;13.40;13.90
20174;DHT22;10246;50.620;7.232;2023-04-23T02:24:23;13.30;14.50
20174;DHT22;10246;50.620;7.232;2023-04-23T02:26:49;13.20;14.40
20174;DHT22;10246;50.620;7.232;2023-04-23T02:29:16;13.10;15.00
20174;DHT22;10246;50.620;7.232;2023-04-23T02:31:44;13.00;15.80
20174;DHT22;10246;50.620;7.232;2023-04-23T02:34:11;13.00;15.60
20174;DHT22;10246;50.620;7.232;2023-04-23T02:36:38;12.90;15.80
20174;DHT22;10246;50.620;7.232;2023-04-23T02:39:04;13.00;16.00
20174;DHT22;10246;50.620;7.232;2023-04-23T02:41:31;13.00;15.90
20174;DHT22;10246;50.620;7.232;2023-04-23T02:43:58;12.80;16.20
20174;DHT22;10246;50.620;7.232;2023-04-23T02:46:25;12.80;16.00
20174;DHT22;10246;50.620;7.232;2023-04-23T02:48:53;12.80;16.20
20174;DHT22;10246;50.620;7.232;2023-04-23T02:51:20;12.90;16.10
20174;DHT22;10246;50.620;7.232;2023-04-23T02:53:46;12.90;15.60
20174;DHT22;10246;50.620;7.232;2023-04-23T02:56:13;12.80;15.70
20174;DHT22;10246;50.620;7.232;2023-04-23T02:58:40;12.80;15.40
20174;DHT22;10246;50.620;7.232;2023-04-23T03:01:07;12.80;15.30
20174;DHT22;10246;50.620;7.232;2023-04-23T03:03:34;12.80;15.50
20174;DHT22;10246;50.620;7.232;2023-04-23T03:06:02;12.80;16.40
20174;DHT22;10246;50.620;7.232;2023-04-23T03:08:29;12.80;16.20
20174;DHT22;10246;50.620;7.232;2023-04-23T03:10:55;12.80;16.00
20174;DHT22;10246;50.620;7.232;2023-04-23T03:13:23;12.90;15.90
20174;DHT22;10246;50.620;7.232;2023-04-23T03:15:50;12.80;16.40
20174;DHT22;10246;50.620;7.232;2023-04-23T03:18:17;12.90;15.80
20174;DHT22;10246;50.620;7.232;2023-04-23T03:20:44;12.80;14.70
20174;DHT22;10246;50.620;7.232;2023-04-23T03:23:12;12.80;14.90
20174;DHT22;10246;50.620;7.232;2023-04-23T03:25:39;12.70;15.40
20174;DHT22;10246;50.620;7.232;2023-04-23T03:28:06;12.70;16.50
20174;DHT22;10246;50.620;7.232;2023-04-23T03:30:33;12.60;16.70
20174;DHT22;10246;50.620;7.232;2023-04-23T03:33:00;12.60;16.30
20174;DHT22;10246;50.620;7.232;2023-04-23T03:35:27;12.50;16.40
20174;DHT22;10246;50.620;7.232;2023-04-23T03:37:54;12.50;16.20
20174;DHT22;10246;50.620;7.232;2023-04-23T03:40:22;12.50;15.90
20174;DHT22;10246;50.620;7.232;2023-04-23T03:42:49;12.60;15.70
20174;DHT22;10246;50.620;7.232;2023-04-23T03:45:15;12.60;15.90
20174;DHT22;10246;50.620;7.232;2023-04-23T03:47:42;12.60;16.20
20174;DHT22;10246;50.620;7.232;2023-04-23T03:50:09;12.60;16.90
20174;DHT22;10246;50.620;7.232;2023-04-23T03:52:38;12.70;17.10
20174;DHT22;10246;50.620;7.232;2023-04-23T03:55:05;12.60;17.60
20174;DHT22;10246;50.620;7.232;2023-04-23T03:57:34;12.70;18.40
20174;DHT22;10246;50.620;7.232;2023-04-23T04:00:00;12.70;17.90
20174;DHT22;10246;50.620;7.232;2023-04-23T04:02:28;12.70;16.80
20174;DHT22;10246;50.620;7.232;2023-04-23T04:04:55;12.80;16.00
20174;DHT22;10246;50.620;7.232;2023-04-23T04:07:21;12.70;15.10
20174;DHT22;10246;50.620;7.232;2023-04-23T04:09:48;12.80;14.10
20174;DHT22;10246;50.620;7.232;2023-04-23T04:12:15;12.70;14.10
20174;DHT22;10246;50.620;7.232;2023-04-23T04:14:44;12.80;14.10
20174;DHT22;10246;50.620;7.232;2023-04-23T04:17:11;12.70;14.10
20174;DHT22;10246;50.620;7.232;2023-04-23T04:19:40;12.80;14.10
20174;DHT22;10246;50.620;7.232;2023-04-23T04:22:07;12.80;14.10
20174;DHT22;10246;50.620;7.232;2023-04-23T04:24:33;12.80;13.50
20174;DHT22;10246;50.620;7.232;2023-04-23T04:27:00;12.90;12.70
20174;DHT22;10246;50.620;7.232;2023-04-23T04:29:27;12.90;13.40
20174;DHT22;10246;50.620;7.232;2023-04-23T04:31:55;12.90;12.70
20174;DHT22;10246;50.620;7.232;2023-04-23T04:34:22;12.80;12.40
20174;DHT22;10246;50.620;7.232;2023-04-23T04:36:49;12.80;11.90
20174;DHT22;10246;50.620;7.232;2023-04-23T04:39:18;12.80;11.60
20174;DHT22;10246;50.620;7.232;2023-04-23T04:41:45;12.80;12.00
20174;DHT22;10246;50.620;7.232;2023-04-23T04:44:12;12.80;12.00
20174;DHT22;10246;50.620;7.232;2023-04-23T04:46:40;12.80;11.50
20174;DHT22;10246;50.620;7.232;2023-04-23T04:49:10;12.80;11.40
20174;DHT22;10246;50.620;7.232;2023-04-23T04:51:37;12.80;11.50
20174;DHT22;10246;50.620;7.232;2023-04-23T04:54:05;12.80;11.00
20174;DHT22;10246;50.620;7.232;2023-04-23T04:56:32;12.80;10.80
20174;DHT22;10246;50.620;7.232;2023-04-23T04:58:58;12.80;10.60
20174;DHT22;10246;50.620;7.232;2023-04-23T05:01:26;12.80;10.40
20174;DHT22;10246;50.620;7.232;2023-04-23T05:03:53;12.80;10.00
20174;DHT22;10246;50.620;7.232;2023-04-23T05:06:21;12.90;9.70
20174;DHT22;10246;50.620;7.232;2023-04-23T05:08:48;13.00;9.30
20174;DHT22;10246;50.620;7.232;2023-04-23T05:11:15;13.10;9.10
20174;DHT22;10246;50.620;7.232;2023-04-23T05:13:43;13.20;8.70
20174;DHT22;10246;50.620;7.232;2023-04-23T05:16:10;13.20;8.80
20174;DHT22;10246;50.620;7.232;2023-04-23T05:18:37;13.10;8.90
20174;DHT22;10246;50.620;7.232;2023-04-23T05:21:04;13.30;8.60
20174;DHT22;10246;50.620;7.232;2023-04-23T05:23:32;13.30;8.60
20174;DHT22;10246;50.620;7.232;2023-04-23T05:25:59;13.40;8.60
20174;DHT22;10246;50.620;7.232;2023-04-23T05:28:28;13.40;8.20
20174;DHT22;10246;50.620;7.232;2023-04-23T05:30:55;13.50;7.80
20174;DHT22;10246;50.620;7.232;2023-04-23T05:33:22;13.50;8.20
20174;DHT22;10246;50.620;7.232;2023-04-23T05:35:49;13.50;7.70
20174;DHT22;10246;50.620;7.232;2023-04-23T05:38:15;13.60;7.40
20174;DHT22;10246;50.620;7.232;2023-04-23T05:40:43;13.60;7.50
20174;DHT22;10246;50.620;7.232;2023-04-23T05:43:11;13.60;7.60
20174;DHT22;10246;50.620;7.232;2023-04-23T05:45:37;13.70;7.30
20174;DHT22;10246;50.620;7.232;2023-04-23T05:48:04;13.70;6.70
20174;DHT22;10246;50.620;7.232;2023-04-23T05:50:31;13.70;6.70
20174;DHT22;10246;50.620;7.232;2023-04-23T05:52:58;13.70;6.70
20174;DHT22;10246;50.620;7.232;2023-04-23T05:55:25;13.80;6.80
20174;DHT22;10246;50.620;7.232;2023-04-23T05:57:53;13.80;6.70
20174;DHT22;10246;50.620;7.232;2023-04-23T06:00:20;13.90;6.60
20174;DHT22;10246;50.620;7.232;2023-04-23T06:02:46;13.90;6.10
20174;DHT22;10246;50.620;7.232;2023-04-23T06:05:13;14.00;5.90
20174;DHT22;10246;50.620;7.232;2023-04-23T06:07:40;13.90;6.20
20174;DHT22;10246;50.620;7.232;2023-04-23T06:10:08;14.00;6.30
20174;DHT22;10246;50.620;7.232;2023-04-23T06:12:35;14.00;5.80
20174;DHT22;10246;50.620;7.232;2023-04-23T06:15:06;14.00;5.70
20174;DHT22;10246;50.620;7.232;2023-04-23T06:17:33;14.10;5.50
20174;DHT22;10246;50.620;7.232;2023-04-23T06:20:00;14.10;5.30
20174;DHT22;10246;50.620;7.232;2023-04-23T06:22:27;14.10;5.10
20174;DHT22;10246;50.620;7.232;2023-04-23T06:24:53;14.20;4.90
20174;DHT22;10246;50.620;7.232;2023-04-23T06:27:20;14.20;4.50
20174;DHT22;10246;50.620;7.232;2023-04-23T06:29:47;14.30;3.90
20174;DHT22;10246;50.620;7.232;2023-04-23T06:32:15;14.30;3.70
20174;DHT22;10246;50.620;7.232;2023-04-23T06:34:42;14.30;3.40
20174;DHT22;10246;50.620;7.232;2023-04-23T06:37:08;14.40;2.90
20174;DHT22;10246;50.620;7.232;2023-04-23T06:39:35;14.30;2.80
20174;DHT22;10246;50.620;7.232;2023-04-23T06:42:02;14.40;3.00
20174;DHT22;10246;50.620;7.232;2023-04-23T06:44:29;14.40;3.10
20174;DHT22;10246;50.620;7.232;2023-04-23T06:46:56;14.30;2.60
20174;DHT22;10246;50.620;7.232;2023-04-23T06:49:24;14.40;2.60
20174;DHT22;10246;50.620;7.232;2023-04-23T06:51:51;14.40;2.30
20174;DHT22;10246;50.620;7.232;2023-04-23T06:54:17;14.30;2.20
20174;DHT22;10246;50.620;7.232;2023-04-23T06:56:44;14.30;1.90
20174;DHT22;10246;50.620;7.232;2023-04-23T06:59:11;14.30;1.40
20174;DHT22;10246;50.620;7.232;2023-04-23T07:01:38;14.40;1.40
20174;DHT22;10246;50.620;7.232;2023-04-23T07:04:04;14.40;1.40
20174;DHT22;10246;50.620;7.232;2023-04-23T07:06:32;14.40;1.00
20174;DHT22;10246;50.620;7.232;2023-04-23T07:09:00;14.40;1.00
20174;DHT22;10246;50.620;7.232;2023-04-23T07:11:26;14.40;1.00
20174;DHT22;10246;50.620;7.232;2023-04-23T07:13:55;14.50;1.00
20174;DHT22;10246;50.620;7.232;2023-04-23T07:16:22;14.50;1.00
20174;DHT22;10246;50.620;7.232;2023-04-23T07:18:50;14.60;1.00
20174;DHT22;10246;50.620;7.232;2023-04-23T07:21:17;14.60;1.00
20174;DHT22;10246;50.620;7.232;2023-04-23T07:23:45;14.70;1.00
20174;DHT22;10246;50.620;7.232;2023-04-23T07:26:12;14.80;1.00
20174;DHT22;10246;50.620;7.232;2023-04-23T07:28:40;14.90;1.00
20174;DHT22;10246;50.620;7.232;2023-04-23T07:31:07;15.10;1.00
20174;DHT22;10246;50.620;7.232;2023-04-23T07:33:34;15.20;1.00
20174;DHT22;10246;50.620;7.232;2023-04-23T07:36:01;15.30;1.00
20174;DHT22;10246;50.620;7.232;2023-04-23T07:38:28;15.40;1.00
20174;DHT22;10246;50.620;7.232;2023-04-23T07:40:56;15.40;1.00
20174;DHT22;10246;50.620;7.232;2023-04-23T07:43:23;15.50;1.00
20174;DHT22;10246;50.620;7.232;2023-04-23T07:45:50;15.50;1.00
20174;DHT22;10246;50.620;7.232;2023-04-23T07:48:16;15.50;1.00
20174;DHT22;10246;50.620;7.232;2023-04-23T07:50:43;15.50;1.00
20174;DHT22;10246;50.620;7.232;2023-04-23T07:53:10;15.50;1.00
20174;DHT22;10246;50.620;7.232;2023-04-23T07:55:37;15.50;1.00
20174;DHT22;10246;50.620;7.232;2023-04-23T07:58:05;15.60;1.00
20174;DHT22;10246;50.620;7.232;2023-04-23T08:00:32;15.60;1.00
20174;DHT22;10246;50.620;7.232;2023-04-23T08:02:59;15.60;1.00
20174;DHT22;10246;50.620;7.232;2023-04-23T08:05:25;15.70;1.00
20174;DHT22;10246;50.620;7.232;2023-04-23T08:07:52;15.70;1.00
20174;DHT22;10246;50.620;7.232;2023-04-23T08:10:19;15.80;1.00
20174;DHT22;10246;50.620;7.232;2023-04-23T08:12:45;15.90;1.00
20174;DHT22;10246;50.620;7.232;2023-04-23T08:15:14;16.00;1.00
20174;DHT22;10246;50.620;7.232;2023-04-23T08:17:40;16.00;1.00
20174;DHT22;10246;50.620;7.232;2023-04-23T08:20:08;16.00;1.00
20174;DHT22;10246;50.620;7.232;2023-04-23T08:22:34;16.00;1.00
20174;DHT22;10246;50.620;7.232;2023-04-23T08:25:01;16.10;1.00
20174;DHT22;10246;50.620;7.232;2023-04-23T08:27:29;16.30;1.00
20174;DHT22;10246;50.620;7.232;2023-04-23T08:29:55;16.50;1.00
20174;DHT22;10246;50.620;7.232;2023-04-23T08:32:23;16.80;1.00
20174;DHT22;10246;50.620;7.232;2023-04-23T08:34:50;17.20;1.00
20174;DHT22;10246;50.620;7.232;2023-04-23T08:37:17;17.40;1.00
20174;DHT22;10246;50.620;7.232;2023-04-23T08:39:43;17.50;1.00
20174;DHT22;10246;50.620;7.232;2023-04-23T08:42:16;17.60;1.00
20174;DHT22;10246;50.620;7.232;2023-04-23T08:44:45;17.70;1.00
20174;DHT22;10246;50.620;7.232;2023-04-23T08:47:15;17.60;1.00
20174;DHT22;10246;50.620;7.232;2023-04-23T08:49:44;17.70;1.00
20174;DHT22;10246;50.620;7.232;2023-04-23T08:52:14;17.90;1.00
20174;DHT22;10246;50.620;7.232;2023-04-23T08:54:45;18.00;1.00
20174;DHT22;10246;50.620;7.232;2023-04-23T08:57:15;18.00;1.00
20174;DHT22;10246;50.620;7.232;2023-04-23T08:59:42;17.90;1.00
20174;DHT22;10246;50.620;7.232;2023-04-23T09:02:09;17.90;1.00
20174;DHT22;10246;50.620;7.232;2023-04-23T09:04:36;17.90;1.00
20174;DHT22;10246;50.620;7.232;2023-04-23T09:07:05;18.00;1.00
20174;DHT22;10246;50.620;7.232;2023-04-23T09:09:36;18.10;1.00
20174;DHT22;10246;50.620;7.232;2023-04-23T09:12:04;18.20;1.00
20174;DHT22;10246;50.620;7.232;2023-04-23T09:14:31;18.50;1.00
20174;DHT22;10246;50.620;7.232;2023-04-23T09:16:58;18.60;1.00
20174;DHT22;10246;50.620;7.232;2023-04-23T09:19:26;18.60;1.00
20174;DHT22;10246;50.620;7.232;2023-04-23T09:21:54;18.90;1.00
20174;DHT22;10246;50.620;7.232;2023-04-23T09:24:23;18.90;1.00
20174;DHT22;10246;50.620;7.232;2023-04-23T09:26:51;18.80;1.00
20174;DHT22;10246;50.620;7.232;2023-04-23T09:29:20;18.70;1.00
20174;DHT22;10246;50.620;7.232;2023-04-23T09:31:49;18.50;1.00
20174;DHT22;10246;50.620;7.232;2023-04-23T09:34:16;18.60;1.00
20174;DHT22;10246;50.620;7.232;2023-04-23T09:36:44;18.70;1.00
20174;DHT22;10246;50.620;7.232;2023-04-23T09:39:11;18.90;1.00
20174;DHT22;10246;50.620;7.232;2023-04-23T09:41:40;19.00;1.00
20174;DHT22;10246;50.620;7.232;2023-04-23T09:44:07;19.30;1.00
20174;DHT22;10246;50.620;7.232;2023-04-23T09:46:36;19.60;1.00
20174;DHT22;10246;50.620;7.232;2023-04-23T09:49:04;19.60;1.00
20174;DHT22;10246;50.620;7.232;2023-04-23T09:51:34;19.40;1.00
20174;DHT22;10246;50.620;7.232;2023-04-23T09:54:01;19.10;1.00
20174;DHT22;10246;50.620;7.232;2023-04-23T09:56:29;18.80;1.00
20174;DHT22;10246;50.620;7.232;2023-04-23T09:58:57;18.60;1.00
20174;DHT22;10246;50.620;7.232;2023-04-23T10:01:28;18.50;1.00
20174;DHT22;10246;50.620;7.232;2023-04-23T10:03:55;18.60;1.00
20174;DHT22;10246;50.620;7.232;2023-04-23T10:06:27;18.80;1.00
20174;DHT22;10246;50.620;7.232;2023-04-23T10:08:56;18.90;1.00
20174;DHT22;10246;50.620;7.232;2023-04-23T10:11:23;18.80;1.00
20174;DHT22;10246;50.620;7.232;2023-04-23T10:13:52;18.60;1.00
20174;DHT22;10246;50.620;7.232;2023-04-23T10:16:21;18.50;1.00
20174;DHT22;10246;50.620;7.232;2023-04-23T10:18:50;18.40;1.00
20174;DHT22;10246;50.620;7.232;2023-04-23T10:21:18;18.40;1.00
20174;DHT22;10246;50.620;7.232;2023-04-23T10:23:46;18.80;1.00
20174;DHT22;10246;50.620;7.232;2023-04-23T10:26:16;19.10;1.00
20174;DHT22;10246;50.620;7.232;2023-04-23T10:28:46;19.20;1.00
20174;DHT22;10246;50.620;7.232;2023-04-23T10:31:13;19.10;1.00
20174;DHT22;10246;50.620;7.232;2023-04-23T10:33:42;19.00;1.00
20174;DHT22;10246;50.620;7.232;2023-04-23T10:36:09;19.00;1.00
20174;DHT22;10246;50.620;7.232;2023-04-23T10:38:37;18.80;1.00
20174;DHT22;10246;50.620;7.232;2023-04-23T10:41:06;18.70;1.00
20174;DHT22;10246;50.620;7.232;2023-04-23T10:43:33;18.70;1.00
20174;DHT22;10246;50.620;7.232;2023-04-23T10:46:00;18.50;1.00
20174;DHT22;10246;50.620;7.232;2023-04-23T10:48:27;18.40;1.00
20174;DHT22;10246;50.620;7.232;2023-04-23T10:50:58;18.40;1.00
20174;DHT22;10246;50.620;7.232;2023-04-23T10:53:25;18.30;1.00
20174;DHT22;10246;50.620;7.232;2023-04-23T10:56:04;18.40;1.00
20174;DHT22;10246;50.620;7.232;2023-04-23T10:58:47;18.60;1.00
20174;DHT22;10246;50.620;7.232;2023-04-23T11:01:16;18.60;1.00
20174;DHT22;10246;50.620;7.232;2023-04-23T11:03:43;18.70;1.00
20174;DHT22;10246;50.620;7.232;2023-04-23T11:06:17;18.70;1.00
20174;DHT22;10246;50.620;7.232;2023-04-23T11:08:51;18.60;1.00
20174;DHT22;10246;50.620;7.232;2023-04-23T11:11:24;18.60;1.00
20174;DHT22;10246;50.620;7.232;2023-04-23T11:14:10;18.60;1.00
20174;DHT22;10246;50.620;7.232;2023-04-23T11:16:38;18.60;1.00
20174;DHT22;10246;50.620;7.232;2023-04-23T11:19:08;18.70;1.00
20174;DHT22;10246;50.620;7.232;2023-04-23T11:21:57;18.70;1.00
20174;DHT22;10246;50.620;7.232;2023-04-23T11:24:27;18.90;1.00
20174;DHT22;10246;50.620;7.232;2023-04-23T11:26:54;19.00;1.00
20174;DHT22;10246;50.620;7.232;2023-04-23T11:29:23;19.10;1.00
20174;DHT22;10246;50.620;7.232;2023-04-23T11:31:50;19.20;1.00
20174;DHT22;10246;50.620;7.232;2023-04-23T11:34:18;19.10;1.00
20174;DHT22;10246;50.620;7.232;2023-04-23T11:36:46;19.10;1.00
20174;DHT22;10246;50.620;7.232;2023-04-23T11:39:15;19.10;1.00
20174;DHT22;10246;50.620;7.232;2023-04-23T11:41:43;19.10;1.00
20174;DHT22;10246;50.620;7.232;2023-04-23T11:44:11;19.20;1.00
20174;DHT22;10246;50.620;7.232;2023-04-23T11:46:37;19.20;1.00
20174;DHT22;10246;50.620;7.232;2023-04-23T11:49:04;19.10;1.00
20174;DHT22;10246;50.620;7.232;2023-04-23T11:51:34;18.90;1.00
20174;DHT22;10246;50.620;7.232;2023-04-23T11:54:04;18.90;1.00
20174;DHT22;10246;50.620;7.232;2023-04-23T11:56:32;19.00;1.00
20174;DHT22;10246;50.620;7.232;2023-04-23T11:59:00;19.00;1.00
20174;DHT22;10246;50.620;7.232;2023-04-23T12:01:39;19.20;1.00
20174;DHT22;10246;50.620;7.232;2023-04-23T12:04:10;19.10;1.00
20174;DHT22;10246;50.620;7.232;2023-04-23T12:06:38;19.20;1.00
20174;DHT22;10246;50.620;7.232;2023-04-23T12:09:05;19.10;1.00
20174;DHT22;10246;50.620;7.232;2023-04-23T12:11:34;19.20;1.00
20174;DHT22;10246;50.620;7.232;2023-04-23T12:14:01;19.50;1.00
20174;DHT22;10246;50.620;7.232;2023-04-23T12:16:36;19.50;1.00
20174;DHT22;10246;50.620;7.232;2023-04-23T12:19:04;19.70;1.00
20174;DHT22;10246;50.620;7.232;2023-04-23T12:21:33;19.80;1.00
20174;DHT22;10246;50.620;7.232;2023-04-23T12:24:02;19.90;1.00
20174;DHT22;10246;50.620;7.232;2023-04-23T12:26:29;19.90;1.00
20174;DHT22;10246;50.620;7.232;2023-04-23T12:28:58;20.00;1.00
20174;DHT22;10246;50.620;7.232;2023-04-23T12:31:27;19.90;1.00
20174;DHT22;10246;50.620;7.232;2023-04-23T12:33:57;19.80;1.00
20174;DHT22;10246;50.620;7.232;2023-04-23T12:36:27;19.90;1.00
20174;DHT22;10246;50.620;7.232;2023-04-23T12:39:18;19.90;1.00
20174;DHT22;10246;50.620;7.232;2023-04-23T12:41:45;20.10;1.00
20174;DHT22;10246;50.620;7.232;2023-04-23T12:44:13;20.30;1.00
20174;DHT22;10246;50.620;7.232;2023-04-23T12:46:40;20.50;1.00
20174;DHT22;10246;50.620;7.232;2023-04-23T12:49:07;20.70;1.00
20174;DHT22;10246;50.620;7.232;2023-04-23T12:51:34;20.80;1.00
20174;DHT22;10246;50.620;7.232;2023-04-23T12:54:00;20.70;1.00
20174;DHT22;10246;50.620;7.232;2023-04-23T12:56:28;20.70;1.00
20174;DHT22;10246;50.620;7.232;2023-04-23T12:58:54;20.90;1.00
20174;DHT22;10246;50.620;7.232;2023-04-23T13:01:23;20.90;1.00
20174;DHT22;10246;50.620;7.232;2023-04-23T13:03:50;20.70;1.00
20174;DHT22;10246;50.620;7.232;2023-04-23T13:06:16;20.50;1.00
20174;DHT22;10246;50.620;7.232;2023-04-23T13:08:43;20.50;1.00
20174;DHT22;10246;50.620;7.232;2023-04-23T13:11:10;20.50;1.00
20174;DHT22;10246;50.620;7.232;2023-04-23T13:13:37;20.50;1.00
20174;DHT22;10246;50.620;7.232;2023-04-23T13:16:04;20.40;1.00
20174;DHT22;10246;50.620;7.232;2023-04-23T13:18:32;20.40;1.00
20174;DHT22;10246;50.620;7.232;2023-04-23T13:20:59;20.30;1.00
20174;DHT22;10246;50.620;7.232;2023-04-23T13:23:25;20.30;1.00
20174;DHT22;10246;50.620;7.232;2023-04-23T13:25:52;20.10;1.00
20174;DHT22;10246;50.620;7.232;2023-04-23T13:28:19;19.90;1.00
20174;DHT22;10246;50.620;7.232;2023-04-23T13:30:46;19.90;1.00
20174;DHT22;10246;50.620;7.232;2023-04-23T13:33:12;19.90;1.00
20174;DHT22;10246;50.620;7.232;2023-04-23T13:35:41;19.70;1.00
20174;DHT22;10246;50.620;7.232;2023-04-23T13:38:07;19.60;1.00
20174;DHT22;10246;50.620;7.232;2023-04-23T13:40:34;19.60;1.00
20174;DHT22;10246;50.620;7.232;2023-04-23T13:43:02;19.50;1.00
20174;DHT22;10246;50.620;7.232;2023-04-23T13:45:29;19.40;1.00
20174;DHT22;10246;50.620;7.232;2023-04-23T13:47:55;19.30;1.00
20174;DHT22;10246;50.620;7.232;2023-04-23T13:50:22;19.10;1.00
20174;DHT22;10246;50.620;7.232;2023-04-23T13:52:50;19.00;1.00
20174;DHT22;10246;50.620;7.232;2023-04-23T13:55:17;18.90;1.00
20174;DHT22;10246;50.620;7.232;2023-04-23T13:57:44;18.90;1.00
20174;DHT22;10246;50.620;7.232;2023-04-23T14:00:12;18.90;1.00
20174;DHT22;10246;50.620;7.232;2023-04-23T14:02:39;18.80;1.00
20174;DHT22;10246;50.620;7.232;2023-04-23T14:05:07;18.80;1.00
20174;DHT22;10246;50.620;7.232;2023-04-23T14:07:34;18.80;1.00
20174;DHT22;10246;50.620;7.232;2023-04-23T14:10:03;18.80;1.00
20174;DHT22;10246;50.620;7.232;2023-04-23T14:12:30;18.80;1.00
20174;DHT22;10246;50.620;7.232;2023-04-23T14:14:56;18.90;1.00
20174;DHT22;10246;50.620;7.232;2023-04-23T14:17:23;18.80;1.00
20174;DHT22;10246;50.620;7.232;2023-04-23T14:19:50;18.80;1.00
20174;DHT22;10246;50.620;7.232;2023-04-23T14:22:17;18.70;1.00
20174;DHT22;10246;50.620;7.232;2023-04-23T14:24:45;18.70;1.00
20174;DHT22;10246;50.620;7.232;2023-04-23T14:27:13;18.70;1.00
20174;DHT22;10246;50.620;7.232;2023-04-23T14:29:43;18.70;1.00
20174;DHT22;10246;50.620;7.232;2023-04-23T14:32:10;18.80;1.00
20174;DHT22;10246;50.620;7.232;2023-04-23T14:34:37;18.90;1.00
20174;DHT22;10246;50.620;7.232;2023-04-23T14:37:04;18.90;1.00
20174;DHT22;10246;50.620;7.232;2023-04-23T14:39:32;18.90;1.00
20174;DHT22;10246;50.620;7.232;2023-04-23T14:41:59;19.00;1.00
20174;DHT22;10246;50.620;7.232;2023-04-23T14:44:28;18.90;1.00
20174;DHT22;10246;50.620;7.232;2023-04-23T14:46:55;18.90;1.00
20174;DHT22;10246;50.620;7.232;2023-04-23T14:49:22;18.90;1.00
20174;DHT22;10246;50.620;7.232;2023-04-23T14:51:51;18.90;1.00
20174;DHT22;10246;50.620;7.232;2023-04-23T14:54:19;18.90;1.00
20174;DHT22;10246;50.620;7.232;2023-04-23T14:56:46;18.90;1.00
20174;DHT22;10246;50.620;7.232;2023-04-23T14:59:12;18.90;1.00
20174;DHT22;10246;50.620;7.232;2023-04-23T15:01:41;18.90;1.00
20174;DHT22;10246;50.620;7.232;2023-04-23T15:04:09;18.90;1.00
20174;DHT22;10246;50.620;7.232;2023-04-23T15:06:36;18.90;1.00
20174;DHT22;10246;50.620;7.232;2023-04-23T15:09:04;18.90;1.00
20174;DHT22;10246;50.620;7.232;2023-04-23T15:11:32;18.80;1.00
20174;DHT22;10246;50.620;7.232;2023-04-23T15:14:01;18.80;1.00
20174;DHT22;10246;50.620;7.232;2023-04-23T15:16:33;18.90;1.00
20174;DHT22;10246;50.620;7.232;2023-04-23T15:19:04;19.00;1.00
20174;DHT22;10246;50.620;7.232;2023-04-23T15:21:31;19.00;1.00
20174;DHT22;10246;50.620;7.232;2023-04-23T15:23:58;19.00;1.00
20174;DHT22;10246;50.620;7.232;2023-04-23T15:26:26;19.00;1.00
20174;DHT22;10246;50.620;7.232;2023-04-23T15:28:54;18.90;1.00
20174;DHT22;10246;50.620;7.232;2023-04-23T15:31:20;18.80;1.00
20174;DHT22;10246;50.620;7.232;2023-04-23T15:33:47;18.80;1.00
20174;DHT22;10246;50.620;7.232;2023-04-23T15:36:15;18.70;1.00
20174;DHT22;10246;50.620;7.232;2023-04-23T15:38:42;18.50;1.00
20174;DHT22;10246;50.620;7.232;2023-04-23T15:41:10;18.30;1.00
20174;DHT22;10246;50.620;7.232;2023-04-23T15:43:36;18.20;1.00